Time;durP1;ratioP1;P1;durP2;ratioP2;P2;SDS_P1;SDS_P2;PMS_P1;PMS_P2;Temp;Humidity;BMP_temperature;BMP_pressure;BME280_temperature;BME280_humidity;BME280_pressure;Samples;Min_cycle;Max_cycle;Signal;HPM_P1;HPM_P2
2023/12/25 00:00:26;;;;;;;4.05;0.77;;;25.80;69.20;;;;;;5118162;23;20012;-39
2023/12/25 00:02:48;;;;;;;1.30;0.40;;;25.90;69.10;;;;;;5116438;23;20023;-41
2023/12/25 00:05:11;;;;;;;3.60;0.90;;;25.90;69.00;;;;;;5118596;23;20025;-42
2023/12/25 00:07:34;;;;;;;3.83;1.02;;;26.00;69.00;;;;;;5114943;23;20013;-42
2023/12/25 00:09:56;;;;;;;5.55;1.00;;;26.00;68.80;;;;;;5118786;23;20021;-41
2023/12/25 00:12:20;;;;;;;2.20;0.85;;;26.00;68.90;;;;;;5109399;23;20019;-41
2023/12/25 00:14:43;;;;;;;4.40;1.58;;;26.00;68.80;;;;;;5111611;23;20077;-53
2023/12/25 00:17:05;;;;;;;5.10;1.10;;;26.00;68.70;;;;;;5111172;23;20448;-54
2023/12/25 00:19:28;;;;;;;6.95;1.30;;;26.00;68.10;;;;;;5108955;23;20016;-57
2023/12/25 00:21:50;;;;;;;7.20;1.20;;;25.90;68.10;;;;;;5111779;23;20020;-49
2023/12/25 00:24:13;;;;;;;4.13;1.48;;;25.90;68.10;;;;;;5109247;23;20083;-45
2023/12/25 00:26:40;;;;;;;4.10;1.30;;;25.90;68.20;;;;;;5109158;23;20020;-48
2023/12/25 00:29:02;;;;;;;14.70;1.92;;;25.90;68.30;;;;;;5085586;23;20381;-53
2023/12/25 00:31:25;;;;;;;7.28;1.45;;;26.00;68.50;;;;;;5117431;23;20059;-49
2023/12/25 00:33:48;;;;;;;7.78;1.73;;;26.00;68.20;;;;;;5112014;23;20021;-49
2023/12/25 00:36:13;;;;;;;5.68;1.40;;;26.00;68.10;;;;;;5109251;23;20028;-52
2023/12/25 00:38:35;;;;;;;7.32;1.45;;;25.90;67.80;;;;;;5110563;23;20510;-46
2023/12/25 00:40:58;;;;;;;1.77;0.80;;;25.90;67.90;;;;;;5110043;23;20075;-47
2023/12/25 00:43:21;;;;;;;3.45;1.00;;;25.90;67.90;;;;;;5109542;23;20020;-45
2023/12/25 00:45:43;;;;;;;3.13;0.85;;;25.80;67.80;;;;;;5108059;23;20039;-51
2023/12/25 00:48:06;;;;;;;1.73;0.55;;;25.80;67.80;;;;;;5110512;23;20012;-45
2023/12/25 00:50:29;;;;;;;3.35;0.98;;;25.80;67.80;;;;;;5110396;23;20024;-47
2023/12/25 00:52:51;;;;;;;2.92;0.70;;;25.80;67.70;;;;;;5113592;23;20317;-51
2023/12/25 00:55:14;;;;;;;1.45;0.60;;;25.80;67.70;;;;;;5110847;23;20017;-45
2023/12/25 00:57:37;;;;;;;2.33;0.73;;;25.80;67.60;;;;;;5113659;23;20017;-49
2023/12/25 00:59:59;;;;;;;1.33;0.50;;;25.80;67.70;;;;;;5111049;23;20016;-47
2023/12/25 01:02:22;;;;;;;3.53;0.50;;;25.80;67.60;;;;;;5112395;23;20016;-47
2023/12/25 01:04:45;;;;;;;2.70;0.75;;;25.80;67.60;;;;;;5111000;23;20259;-48
2023/12/25 01:07:07;;;;;;;0.68;0.50;;;25.80;67.60;;;;;;5112654;23;20017;-47
2023/12/25 01:09:30;;;;;;;1.05;0.40;;;25.80;67.50;;;;;;5110927;23;20012;-48
2023/12/25 01:11:53;;;;;;;1.52;0.45;;;25.80;67.50;;;;;;5113973;23;20083;-48
2023/12/25 01:14:16;;;;;;;0.60;0.40;;;25.80;67.60;;;;;;5111197;23;20025;-49
2023/12/25 01:16:39;;;;;;;1.65;0.55;;;25.80;67.60;;;;;;5103328;23;20073;-48
2023/12/25 01:19:02;;;;;;;0.30;0.30;;;25.80;67.40;;;;;;5111395;23;20009;-50
2023/12/25 01:21:25;;;;;;;1.80;0.70;;;25.80;67.40;;;;;;5113273;23;20021;-52
2023/12/25 01:23:47;;;;;;;0.30;0.30;;;25.80;67.30;;;;;;5084424;23;20033;-48
2023/12/25 01:26:10;;;;;;;0.65;0.60;;;25.90;67.20;;;;;;5113003;23;20477;-49
2023/12/25 01:28:33;;;;;;;0.52;0.40;;;25.90;67.20;;;;;;5112154;23;20518;-51
2023/12/25 01:30:55;;;;;;;2.75;1.00;;;25.90;67.10;;;;;;5112566;23;20016;-53
2023/12/25 01:33:18;;;;;;;1.40;0.80;;;25.90;67.10;;;;;;5113019;23;20644;-50
2023/12/25 01:35:40;;;;;;;1.98;0.68;;;26.00;67.10;;;;;;5114659;23;20444;-50
2023/12/25 01:38:03;;;;;;;2.05;1.13;;;25.90;67.00;;;;;;5113175;23;20092;-49
2023/12/25 01:40:26;;;;;;;1.13;0.90;;;25.90;67.00;;;;;;5119198;23;20087;-47
2023/12/25 01:42:48;;;;;;;2.05;0.95;;;26.00;67.10;;;;;;5119420;23;20455;-50
2023/12/25 01:45:11;;;;;;;1.65;0.70;;;25.90;67.10;;;;;;5120805;23;20017;-47
2023/12/25 01:47:34;;;;;;;2.53;1.00;;;25.90;67.00;;;;;;5119054;23;20081;-47
2023/12/25 01:50:00;;;;;;;2.85;0.90;;;26.00;67.00;;;;;;5115141;23;20796;-49
2023/12/25 01:52:22;;;;;;;1.45;0.90;;;26.00;66.90;;;;;;5105527;23;20009;-48
2023/12/25 01:54:46;;;;;;;2.45;1.15;;;26.00;66.70;;;;;;5116178;23;20051;-53
2023/12/25 01:57:09;;;;;;;1.85;0.77;;;26.00;66.80;;;;;;5111998;23;20095;-48
2023/12/25 01:59:32;;;;;;;3.20;0.97;;;26.00;66.80;;;;;;5113477;23;20100;-47
2023/12/25 02:01:55;;;;;;;2.03;1.07;;;26.00;66.70;;;;;;5111527;23;20017;-49
2023/12/25 02:04:17;;;;;;;1.48;0.77;;;26.00;66.70;;;;;;5113106;23;20047;-51
2023/12/25 02:06:40;;;;;;;1.23;0.85;;;26.00;66.70;;;;;;5115070;23;20067;-49
2023/12/25 02:09:03;;;;;;;1.93;0.87;;;26.00;66.70;;;;;;5112667;23;20021;-50
2023/12/25 02:11:26;;;;;;;0.80;0.80;;;26.00;66.70;;;;;;5121363;23;20343;-50
2023/12/25 02:13:49;;;;;;;1.13;0.70;;;26.10;66.70;;;;;;5111740;23;20009;-51
2023/12/25 02:16:12;;;;;;;1.30;1.00;;;26.10;66.50;;;;;;5122272;23;20021;-48
2023/12/25 02:18:35;;;;;;;1.58;0.93;;;26.10;66.60;;;;;;5124154;23;20009;-52
2023/12/25 02:20:58;;;;;;;2.38;0.88;;;26.10;66.60;;;;;;5109207;23;20023;-48
2023/12/25 02:23:22;;;;;;;2.30;1.10;;;26.10;66.50;;;;;;5113641;23;20091;-49
2023/12/25 02:25:58;;;;;;;1.83;1.05;;;26.10;67.10;;;;;;5112882;23;20266;-48
2023/12/25 02:28:22;;;;;;;3.15;1.20;;;26.10;66.40;;;;;;5119735;23;20019;-46
2023/12/25 02:30:46;;;;;;;2.40;1.13;;;26.20;66.50;;;;;;5117895;23;20254;-47
2023/12/25 02:33:08;;;;;;;1.50;1.00;;;26.20;66.50;;;;;;5119818;23;20017;-50
2023/12/25 02:35:31;;;;;;;2.15;1.15;;;26.20;66.40;;;;;;5118496;23;20063;-48
2023/12/25 02:37:54;;;;;;;1.63;1.17;;;26.20;66.50;;;;;;5120824;23;20383;-45
2023/12/25 02:40:16;;;;;;;1.63;0.90;;;26.20;66.40;;;;;;5121453;23;20487;-47
2023/12/25 02:42:39;;;;;;;1.88;1.20;;;26.20;66.30;;;;;;5111341;23;20097;-51
2023/12/25 02:45:02;;;;;;;1.83;1.17;;;26.30;66.40;;;;;;5115400;23;20020;-50
2023/12/25 02:47:24;;;;;;;1.70;1.20;;;26.30;66.30;;;;;;5084741;23;20396;-51
2023/12/25 02:49:47;;;;;;;1.67;1.20;;;26.30;66.20;;;;;;5083037;23;20017;-49
2023/12/25 02:52:10;;;;;;;1.85;1.00;;;26.40;66.30;;;;;;5113789;23;20017;-49
2023/12/25 02:54:32;;;;;;;1.75;1.20;;;26.40;66.20;;;;;;5113175;23;20009;-53
2023/12/25 02:56:55;;;;;;;1.92;1.20;;;26.40;66.20;;;;;;5083475;23;20100;-52
2023/12/25 02:59:17;;;;;;;1.50;1.15;;;26.40;66.20;;;;;;5111960;23;20012;-54
2023/12/25 03:01:40;;;;;;;1.63;1.13;;;26.40;66.00;;;;;;5113850;23;20451;-48
2023/12/25 03:04:03;;;;;;;1.80;1.10;;;26.50;66.00;;;;;;5111799;23;20062;-46
2023/12/25 03:06:25;;;;;;;1.67;1.27;;;26.50;66.00;;;;;;5112888;23;20017;-49
2023/12/25 03:08:48;;;;;;;1.88;1.10;;;26.50;65.90;;;;;;5108121;23;20017;-47
2023/12/25 03:11:10;;;;;;;2.33;1.05;;;26.50;65.80;;;;;;5107229;23;20095;-51
2023/12/25 03:13:33;;;;;;;1.15;0.88;;;26.50;65.80;;;;;;5116025;23;20017;-55
2023/12/25 03:15:55;;;;;;;1.58;1.10;;;26.50;65.80;;;;;;5119726;23;20079;-48
2023/12/25 03:18:18;;;;;;;1.75;0.80;;;26.50;65.80;;;;;;5120166;23;20059;-50
2023/12/25 03:20:40;;;;;;;1.58;0.90;;;26.60;65.80;;;;;;5119637;23;20012;-49
2023/12/25 03:23:03;;;;;;;0.95;0.80;;;26.60;65.80;;;;;;5118396;23;20020;-49
2023/12/25 03:25:26;;;;;;;1.25;0.80;;;26.60;65.80;;;;;;5111433;23;20013;-50
2023/12/25 03:27:49;;;;;;;1.98;1.13;;;26.60;65.80;;;;;;5118287;23;20093;-47
2023/12/25 03:30:12;;;;;;;3.20;1.10;;;26.60;65.80;;;;;;5117948;23;20017;-52
2023/12/25 03:32:34;;;;;;;1.42;1.02;;;26.60;65.80;;;;;;5118819;23;20352;-49
2023/12/25 03:34:57;;;;;;;1.25;0.80;;;26.70;65.80;;;;;;5119587;23;20438;-55
2023/12/25 03:37:19;;;;;;;1.38;0.70;;;26.70;65.70;;;;;;5118283;23;20017;-50
2023/12/25 03:39:42;;;;;;;1.13;0.50;;;26.70;65.70;;;;;;5118084;23;20020;-51
2023/12/25 03:42:05;;;;;;;1.55;0.70;;;26.70;65.70;;;;;;5118668;23;20013;-51
2023/12/25 03:44:27;;;;;;;1.53;0.70;;;26.70;65.70;;;;;;5117392;23;20075;-48
2023/12/25 03:46:50;;;;;;;1.63;0.95;;;26.80;65.70;;;;;;5119495;23;20024;-53
2023/12/25 03:49:13;;;;;;;1.02;0.70;;;26.80;65.70;;;;;;5117415;23;20028;-47
2023/12/25 03:51:36;;;;;;;0.65;0.65;;;26.80;65.70;;;;;;5119524;23;20478;-50
2023/12/25 03:53:58;;;;;;;0.63;0.60;;;26.80;65.60;;;;;;5119093;23;20491;-50
2023/12/25 03:56:24;;;;;;;1.05;0.68;;;26.90;65.70;;;;;;5119132;23;20013;-52
2023/12/25 03:58:47;;;;;;;1.50;0.70;;;26.90;65.60;;;;;;5109717;23;20044;-48
2023/12/25 04:01:10;;;;;;;1.40;0.82;;;26.90;65.50;;;;;;5118350;23;20009;-50
2023/12/25 04:03:33;;;;;;;1.45;0.70;;;26.90;65.50;;;;;;5119284;23;20028;-47
2023/12/25 04:05:55;;;;;;;1.00;0.70;;;26.90;65.60;;;;;;5118035;23;20020;-49
2023/12/25 04:08:18;;;;;;;1.63;0.70;;;27.00;65.60;;;;;;5119992;23;20055;-49
2023/12/25 04:10:41;;;;;;;0.75;0.60;;;26.90;65.50;;;;;;5117826;23;20009;-51
2023/12/25 04:13:03;;;;;;;1.58;0.80;;;27.00;65.60;;;;;;5118617;23;20044;-46
2023/12/25 04:15:26;;;;;;;0.88;0.70;;;27.00;65.60;;;;;;5117855;23;20390;-51
2023/12/25 04:17:48;;;;;;;1.17;0.60;;;27.00;65.60;;;;;;5112110;23;20503;-46
2023/12/25 04:20:11;;;;;;;0.90;0.82;;;27.00;65.60;;;;;;5109095;23;20017;-46
2023/12/25 04:22:34;;;;;;;1.30;0.80;;;27.00;66.20;;;;;;5116492;23;20021;-48
2023/12/25 04:24:56;;;;;;;0.93;0.60;;;27.00;65.60;;;;;;5117000;23;20023;-46
2023/12/25 04:27:19;;;;;;;0.88;0.68;;;27.10;65.60;;;;;;5088714;23;20092;-47
2023/12/25 04:29:42;;;;;;;1.60;0.63;;;27.10;65.50;;;;;;5119851;23;20502;-44
2023/12/25 04:32:05;;;;;;;1.13;0.60;;;27.10;65.50;;;;;;5117497;23;20013;-48
2023/12/25 04:34:27;;;;;;;1.52;0.77;;;27.10;65.50;;;;;;5118723;23;20013;-48
2023/12/25 04:36:51;;;;;;;1.33;1.02;;;27.10;65.50;;;;;;5118469;23;20013;-53
2023/12/25 04:39:14;;;;;;;0.52;0.52;;;27.10;65.50;;;;;;5117886;23;20023;-50
2023/12/25 04:41:37;;;;;;;1.58;0.60;;;27.10;65.50;;;;;;5119122;23;20013;-48
2023/12/25 04:43:59;;;;;;;1.08;0.77;;;27.20;65.60;;;;;;5119420;23;20032;-47
2023/12/25 04:46:22;;;;;;;0.93;0.63;;;27.20;65.70;;;;;;5119425;23;20100;-50
2023/12/25 04:48:45;;;;;;;1.33;0.75;;;27.10;65.70;;;;;;5119915;23;20095;-51
2023/12/25 04:51:08;;;;;;;1.40;0.50;;;27.10;65.70;;;;;;5110288;23;20037;-49
2023/12/25 04:53:33;;;;;;;1.73;0.60;;;27.20;65.70;;;;;;5118444;23;20013;-53
2023/12/25 04:55:56;;;;;;;1.38;0.52;;;27.20;65.80;;;;;;5119694;23;20039;-48
2023/12/25 04:58:20;;;;;;;1.02;0.40;;;27.10;65.70;;;;;;5118663;23;20013;-52
2023/12/25 05:00:42;;;;;;;0.45;0.45;;;27.20;65.70;;;;;;5109045;23;20104;-50
2023/12/25 05:03:05;;;;;;;1.45;0.57;;;27.20;65.70;;;;;;5119203;23;20456;-50
2023/12/25 05:05:27;;;;;;;0.83;0.53;;;27.20;65.70;;;;;;5109083;23;20021;-48
2023/12/25 05:07:50;;;;;;;0.95;0.60;;;27.20;65.60;;;;;;5116848;23;20016;-53
2023/12/25 05:10:13;;;;;;;0.73;0.57;;;27.20;65.60;;;;;;5109690;23;20048;-53
2023/12/25 05:12:35;;;;;;;1.30;0.70;;;27.20;65.60;;;;;;5117170;23;20017;-51
2023/12/25 05:14:58;;;;;;;2.17;0.52;;;27.30;65.70;;;;;;5116251;23;20028;-49
2023/12/25 05:17:20;;;;;;;1.00;0.65;;;27.30;65.70;;;;;;5115586;23;20120;-53
2023/12/25 05:19:43;;;;;;;0.40;0.40;;;27.30;65.70;;;;;;5117895;23;20112;-51
2023/12/25 05:22:06;;;;;;;1.27;0.60;;;27.30;65.80;;;;;;5108310;23;20021;-53
2023/12/25 05:24:28;;;;;;;1.23;0.60;;;27.30;66.00;;;;;;5116204;23;20344;-49
2023/12/25 05:26:51;;;;;;;1.98;1.00;;;27.30;66.40;;;;;;5117985;23;20096;-53
2023/12/25 05:29:13;;;;;;;2.65;1.02;;;27.30;66.50;;;;;;5117954;23;20358;-53
2023/12/25 05:31:36;;;;;;;2.47;0.93;;;27.30;66.90;;;;;;5118799;23;20402;-53
2023/12/25 05:33:58;;;;;;;1.40;0.80;;;27.30;67.10;;;;;;5118259;23;20020;-50
2023/12/25 05:36:21;;;;;;;2.15;1.20;;;27.30;67.20;;;;;;5108144;23;20065;-51
2023/12/25 05:38:44;;;;;;;1.70;0.83;;;27.30;67.10;;;;;;5104002;23;20024;-49
2023/12/25 05:41:08;;;;;;;1.75;0.88;;;27.30;66.90;;;;;;5110958;23;20012;-49
2023/12/25 05:43:30;;;;;;;1.67;0.80;;;27.30;66.90;;;;;;5110987;23;20097;-53
2023/12/25 05:45:53;;;;;;;0.88;0.60;;;27.30;66.90;;;;;;5104952;23;20461;-51
2023/12/25 05:48:16;;;;;;;0.93;0.67;;;27.30;66.90;;;;;;5074837;23;20048;-48
2023/12/25 05:50:38;;;;;;;2.47;0.80;;;27.30;67.50;;;;;;5102175;23;20028;-47
2023/12/25 05:53:01;;;;;;;2.97;1.10;;;27.30;66.80;;;;;;5109549;23;20027;-49
2023/12/25 05:55:25;;;;;;;1.63;0.70;;;27.30;66.80;;;;;;5108768;23;20380;-50
2023/12/25 05:57:48;;;;;;;1.80;0.70;;;27.30;66.90;;;;;;5110891;23;20052;-53
2023/12/25 06:00:11;;;;;;;1.83;0.95;;;27.30;66.90;;;;;;5111296;23;20482;-49
2023/12/25 06:02:34;;;;;;;2.22;1.05;;;27.30;66.90;;;;;;5113556;23;20009;-49
2023/12/25 06:04:56;;;;;;;1.95;0.82;;;27.30;66.90;;;;;;5114986;23;20391;-47
2023/12/25 06:07:19;;;;;;;0.75;0.60;;;27.30;66.90;;;;;;5115058;23;20016;-48
2023/12/25 06:09:42;;;;;;;1.85;0.85;;;27.30;67.00;;;;;;5111004;23;20439;-50
2023/12/25 06:12:05;;;;;;;1.13;0.80;;;27.30;67.00;;;;;;5112505;23;20017;-51
2023/12/25 06:14:27;;;;;;;2.55;0.95;;;27.30;67.00;;;;;;5108037;23;20016;-50
2023/12/25 06:16:50;;;;;;;2.50;0.60;;;27.30;67.00;;;;;;5107778;23;20455;-50
2023/12/25 06:19:13;;;;;;;2.08;1.02;;;27.30;66.90;;;;;;5102068;23;20013;-54
2023/12/25 06:21:35;;;;;;;1.25;0.70;;;27.30;66.90;;;;;;5105057;23;20047;-47
2023/12/25 06:23:58;;;;;;;1.88;0.80;;;27.30;66.90;;;;;;5108211;23;20073;-49
2023/12/25 06:26:21;;;;;;;0.75;0.60;;;27.30;66.90;;;;;;5113315;23;20455;-49
2023/12/25 06:28:43;;;;;;;1.23;0.80;;;27.30;66.90;;;;;;5117673;23;20009;-47
2023/12/25 06:31:07;;;;;;;3.25;1.10;;;27.30;67.10;;;;;;5123932;23;20322;-51
2023/12/25 06:33:29;;;;;;;1.15;0.70;;;27.30;67.10;;;;;;5125978;23;20482;-54
2023/12/25 06:35:52;;;;;;;2.55;0.93;;;27.30;67.20;;;;;;5093930;23;20547;-48
2023/12/25 06:38:15;;;;;;;2.05;0.90;;;27.30;67.30;;;;;;5117937;23;20017;-48
2023/12/25 06:40:37;;;;;;;1.48;0.70;;;27.30;67.40;;;;;;5118339;23;20092;-53
2023/12/25 06:43:00;;;;;;;2.92;1.17;;;27.20;67.40;;;;;;5119229;23;20027;-48
2023/12/25 06:45:23;;;;;;;1.95;0.93;;;27.20;67.40;;;;;;5120997;23;20012;-49
2023/12/25 06:47:46;;;;;;;1.77;0.88;;;27.20;67.40;;;;;;5120046;23;20048;-49
2023/12/25 06:50:09;;;;;;;2.15;0.75;;;27.20;67.50;;;;;;5120301;23;20012;-48
2023/12/25 06:52:32;;;;;;;2.67;0.80;;;27.20;67.50;;;;;;5119711;23;20432;-47
2023/12/25 06:54:55;;;;;;;2.83;1.50;;;27.20;67.60;;;;;;5111437;23;20016;-53
2023/12/25 06:57:17;;;;;;;2.80;1.45;;;27.20;67.80;;;;;;5120790;23;20009;-49
2023/12/25 06:59:41;;;;;;;4.57;2.60;;;27.20;67.80;;;;;;5120414;23;20467;-51
2023/12/25 07:02:03;;;;;;;9.32;5.35;;;27.20;67.90;;;;;;5119620;23;20013;-52
2023/12/25 07:04:26;;;;;;;9.05;4.50;;;27.20;68.00;;;;;;5117573;23;20029;-46
2023/12/25 07:06:50;;;;;;;7.50;4.47;;;27.10;68.00;;;;;;5119837;23;20020;-50
2023/12/25 07:09:15;;;;;;;7.22;4.30;;;27.10;68.00;;;;;;5117810;23;20025;-51
2023/12/25 07:11:38;;;;;;;6.90;3.42;;;27.20;68.00;;;;;;5118240;23;20013;-52
2023/12/25 07:14:00;;;;;;;7.25;3.88;;;27.20;67.90;;;;;;5118309;23;20039;-50
2023/12/25 07:16:26;;;;;;;5.20;3.13;;;27.20;67.90;;;;;;5118430;23;20325;-52
2023/12/25 07:18:51;;;;;;;5.00;2.63;;;27.20;67.90;;;;;;5111064;23;20071;-52
2023/12/25 07:21:14;;;;;;;4.88;2.85;;;27.10;67.80;;;;;;5119838;23;20040;-50
2023/12/25 07:23:36;;;;;;;4.35;2.40;;;27.10;68.00;;;;;;5119431;23;20467;-52
2023/12/25 07:25:59;;;;;;;4.68;2.30;;;27.10;68.20;;;;;;5117100;23;20458;-50
2023/12/25 07:28:21;;;;;;;3.63;1.92;;;27.10;68.60;;;;;;5113059;23;20514;-48
2023/12/25 07:30:45;;;;;;;3.63;1.85;;;27.10;69.00;;;;;;5109587;23;20009;-54
2023/12/25 07:33:08;;;;;;;3.67;1.77;;;27.10;69.10;;;;;;5097102;23;20100;-53
2023/12/25 07:35:30;;;;;;;5.63;2.40;;;27.00;69.20;;;;;;5073805;23;20101;-48
2023/12/25 07:37:54;;;;;;;5.23;1.93;;;27.00;69.20;;;;;;5105926;23;20384;-51
2023/12/25 07:40:16;;;;;;;3.85;1.70;;;27.00;69.30;;;;;;5104256;23;20500;-50
2023/12/25 07:42:39;;;;;;;4.03;1.73;;;27.00;69.20;;;;;;5104790;23;20048;-51
2023/12/25 07:45:02;;;;;;;3.53;1.80;;;27.00;69.30;;;;;;5104175;23;20101;-49
2023/12/25 07:47:24;;;;;;;5.43;2.15;;;27.00;69.20;;;;;;5103628;23;20016;-50
2023/12/25 07:49:47;;;;;;;2.90;1.60;;;27.00;69.30;;;;;;5102418;23;20021;-52
2023/12/25 07:52:10;;;;;;;4.90;1.70;;;27.00;69.30;;;;;;5111742;23;20068;-47
2023/12/25 07:54:32;;;;;;;2.85;1.27;;;27.00;69.30;;;;;;5110292;23;20024;-51
2023/12/25 07:56:55;;;;;;;3.00;1.35;;;27.00;69.20;;;;;;5110317;23;20017;-50
2023/12/25 07:59:21;;;;;;;2.22;1.42;;;27.00;69.20;;;;;;5112959;23;20027;-47
2023/12/25 08:01:44;;;;;;;2.53;1.30;;;27.00;69.20;;;;;;5111411;23;20047;-48
2023/12/25 08:04:07;;;;;;;1.98;1.30;;;27.00;69.00;;;;;;5109931;23;20420;-48
2023/12/25 08:06:29;;;;;;;2.77;1.23;;;27.00;69.00;;;;;;5103013;23;20095;-50
2023/12/25 08:08:52;;;;;;;2.58;1.35;;;27.00;69.00;;;;;;5102202;23;20023;-49
2023/12/25 08:11:18;;;;;;;2.08;1.23;;;27.00;68.90;;;;;;5110564;23;20198;-52
2023/12/25 08:13:41;;;;;;;2.88;1.25;;;27.00;68.90;;;;;;5111571;23;20100;-50
2023/12/25 08:16:03;;;;;;;2.53;1.13;;;27.00;68.80;;;;;;5108829;23;20221;-50
2023/12/25 08:18:26;;;;;;;2.67;1.25;;;27.00;68.80;;;;;;5111716;23;20024;-48
2023/12/25 08:20:48;;;;;;;1.67;1.13;;;27.00;68.80;;;;;;5102904;23;20091;-48
2023/12/25 08:23:11;;;;;;;1.75;1.10;;;27.00;68.80;;;;;;5109661;23;20021;-49
2023/12/25 08:25:34;;;;;;;1.95;0.98;;;27.00;68.90;;;;;;5110153;23;20088;-54
2023/12/25 08:27:56;;;;;;;1.10;0.90;;;27.00;68.90;;;;;;5110642;23;20021;-49
2023/12/25 08:30:19;;;;;;;2.88;1.00;;;26.90;68.90;;;;;;5110348;23;20024;-50
2023/12/25 08:32:42;;;;;;;1.90;0.93;;;26.90;68.80;;;;;;5101703;23;20055;-48
2023/12/25 08:35:05;;;;;;;2.38;1.45;;;26.90;68.70;;;;;;5111529;23;20071;-52
2023/12/25 08:37:27;;;;;;;1.27;1.07;;;27.00;68.80;;;;;;5110862;23;20455;-49
2023/12/25 08:39:50;;;;;;;2.05;0.98;;;26.90;68.80;;;;;;5111189;23;20017;-49
2023/12/25 08:42:13;;;;;;;3.47;1.50;;;26.90;68.80;;;;;;5110789;23;20044;-51
2023/12/25 08:44:36;;;;;;;1.42;0.90;;;26.90;69.50;;;;;;5101023;23;20531;-51
2023/12/25 08:46:59;;;;;;;0.82;0.70;;;26.90;68.80;;;;;;5108980;23;20452;-49
2023/12/25 08:49:21;;;;;;;1.88;1.20;;;26.90;68.80;;;;;;5081191;23;20017;-47
2023/12/25 08:51:44;;;;;;;3.17;1.00;;;26.90;68.80;;;;;;5109251;23;20019;-47
2023/12/25 08:54:07;;;;;;;2.03;0.80;;;26.90;68.80;;;;;;5109867;23;20468;-48
2023/12/25 08:56:29;;;;;;;1.23;0.80;;;26.90;68.80;;;;;;5112972;23;20009;-46
2023/12/25 08:58:52;;;;;;;0.85;0.50;;;26.90;68.80;;;;;;5109129;23;20127;-47
2023/12/25 09:01:15;;;;;;;1.45;0.73;;;26.90;68.90;;;;;;5109553;23;20013;-48
2023/12/25 09:03:37;;;;;;;1.38;0.88;;;26.90;68.90;;;;;;5110926;23;20119;-47
2023/12/25 09:06:02;;;;;;;2.08;0.80;;;26.90;68.90;;;;;;5100360;23;20048;-46
2023/12/25 09:08:25;;;;;;;0.93;0.55;;;26.90;68.90;;;;;;5081956;23;20028;-48
2023/12/25 09:10:48;;;;;;;1.13;0.70;;;26.90;69.00;;;;;;5110634;23;20040;-46
2023/12/25 09:13:10;;;;;;;2.70;0.80;;;26.90;69.00;;;;;;5109245;23;20127;-48
2023/12/25 09:15:33;;;;;;;2.00;1.08;;;26.90;69.00;;;;;;5108194;23;20040;-50
2023/12/25 09:17:55;;;;;;;1.30;0.75;;;26.90;69.10;;;;;;5109655;23;20532;-50
2023/12/25 09:20:18;;;;;;;1.60;0.95;;;26.90;69.10;;;;;;5080157;23;20048;-49
2023/12/25 09:22:41;;;;;;;1.17;0.90;;;26.90;69.10;;;;;;5110748;23;20013;-46
2023/12/25 09:25:03;;;;;;;1.52;0.82;;;26.90;69.20;;;;;;5110141;23;20029;-48
2023/12/25 09:27:29;;;;;;;1.17;0.77;;;26.90;69.10;;;;;;5110330;23;20013;-49
2023/12/25 09:29:53;;;;;;;1.52;0.70;;;26.80;69.10;;;;;;5081205;23;20733;-47
2023/12/25 09:32:15;;;;;;;1.23;0.60;;;26.90;69.20;;;;;;5101972;23;20017;-50
2023/12/25 09:34:38;;;;;;;1.40;1.15;;;26.90;69.30;;;;;;5112867;23;20020;-51
2023/12/25 09:37:01;;;;;;;0.75;0.52;;;26.80;69.30;;;;;;5109766;23;20017;-50
2023/12/25 09:39:23;;;;;;;0.90;0.50;;;26.80;69.30;;;;;;5102545;23;20021;-48
2023/12/25 09:41:46;;;;;;;1.80;0.85;;;26.80;69.30;;;;;;5112094;23;20053;-49
2023/12/25 09:44:08;;;;;;;1.58;0.80;;;26.80;69.40;;;;;;5111531;23;20028;-49
2023/12/25 09:46:31;;;;;;;0.50;0.50;;;26.80;69.30;;;;;;5104126;23;20379;-49
2023/12/25 09:48:57;;;;;;;2.13;0.80;;;26.80;69.40;;;;;;5111788;23;20021;-52
2023/12/25 09:51:22;;;;;;;0.80;0.70;;;26.80;69.40;;;;;;5111401;23;20527;-50
2023/12/25 09:53:47;;;;;;;0.95;0.60;;;26.80;69.40;;;;;;5112319;23;20403;-51
2023/12/25 09:56:12;;;;;;;1.63;1.17;;;26.80;69.40;;;;;;5103146;23;20024;-52
2023/12/25 09:58:36;;;;;;;0.85;0.57;;;26.80;69.50;;;;;;5104748;23;20013;-46
2023/12/25 10:00:59;;;;;;;2.03;0.75;;;26.80;69.50;;;;;;5110919;23;20058;-51
2023/12/25 10:03:22;;;;;;;;;;;26.80;69.50;;;;;;5111718;23;20108;-47
2023/12/25 10:05:44;;;;;;;1.48;0.70;;;26.80;69.50;;;;;;5083082;23;20274;-49
2023/12/25 10:08:07;;;;;;;2.08;0.60;;;26.80;69.50;;;;;;5111749;23;20017;-49
2023/12/25 10:10:30;;;;;;;1.17;0.60;;;26.80;69.50;;;;;;5103988;23;20096;-47
2023/12/25 10:12:52;;;;;;;0.57;0.50;;;26.80;69.50;;;;;;5110315;23;20020;-47
2023/12/25 10:15:15;;;;;;;1.00;0.52;;;26.80;69.50;;;;;;5112202;23;20059;-51
2023/12/25 10:17:38;;;;;;;0.67;0.57;;;26.80;69.50;;;;;;5111492;23;20032;-53
2023/12/25 10:20:00;;;;;;;0.50;0.35;;;26.80;69.50;;;;;;5103725;23;20032;-46
2023/12/25 10:22:37;;;;;;;1.67;0.60;;;26.80;69.60;;;;;;5112403;23;20044;-49
2023/12/25 10:25:18;;;;;;;0.75;0.50;;;26.80;69.60;;;;;;5104694;23;20061;-47
2023/12/25 10:27:46;;;;;;;1.40;0.60;;;26.80;69.60;;;;;;5112715;23;20118;-50
2023/12/25 10:30:19;;;;;;;0.70;0.70;;;26.80;70.20;;;;;;5105942;23;20056;-47
2023/12/25 10:32:41;;;;;;;0.90;0.80;;;26.80;69.60;;;;;;5105796;23;20017;-48
2023/12/25 10:35:15;;;;;;;1.02;0.50;;;26.80;69.60;;;;;;5113407;23;20028;-50
2023/12/25 10:37:39;;;;;;;1.02;0.60;;;26.80;69.60;;;;;;5114613;23;20363;-47
2023/12/25 10:40:02;;;;;;;0.82;0.50;;;26.80;69.60;;;;;;5118637;23;20120;-54
2023/12/25 10:42:24;;;;;;;0.83;0.60;;;26.80;69.60;;;;;;5116418;23;20035;-51
2023/12/25 10:44:49;;;;;;;0.70;0.70;;;26.80;69.60;;;;;;5114962;23;20104;-54
2023/12/25 10:47:13;;;;;;;0.60;0.60;;;26.80;69.80;;;;;;5113074;23;20173;-50
2023/12/25 10:49:37;;;;;;;0.93;0.50;;;26.70;69.70;;;;;;5114773;23;20025;-52
2023/12/25 10:52:02;;;;;;;0.80;0.60;;;26.70;70.50;;;;;;5113711;23;20016;-48
2023/12/25 10:54:26;;;;;;;1.55;0.52;;;26.70;69.80;;;;;;5117557;23;20442;-51
2023/12/25 10:56:50;;;;;;;0.60;0.57;;;26.70;69.70;;;;;;5117783;23;20021;-52
2023/12/25 10:59:25;;;;;;;1.27;0.68;;;26.70;69.80;;;;;;5118632;23;20509;-52
2023/12/25 11:01:49;;;;;;;1.17;0.60;;;26.70;69.80;;;;;;5117503;23;20092;-51
2023/12/25 11:04:15;;;;;;;1.60;0.60;;;26.70;69.80;;;;;;5120052;23;20025;-51
2023/12/25 11:06:39;;;;;;;1.27;0.52;;;26.70;69.90;;;;;;5117166;23;20019;-50
2023/12/25 11:09:04;;;;;;;0.50;0.40;;;26.70;69.80;;;;;;5111016;23;20017;-54
2023/12/25 11:11:27;;;;;;;1.05;0.50;;;26.70;69.90;;;;;;5118559;23;20428;-49
2023/12/25 11:13:50;;;;;;;1.30;0.50;;;26.70;69.90;;;;;;5119617;23;20013;-52
2023/12/25 11:16:12;;;;;;;0.98;0.50;;;26.70;69.80;;;;;;5118045;23;20094;-47
2023/12/25 11:18:37;;;;;;;1.07;0.60;;;26.70;69.90;;;;;;5109885;23;20020;-49
2023/12/25 11:21:12;;;;;;;0.77;0.60;;;26.60;69.90;;;;;;5119059;23;20427;-50
2023/12/25 11:23:36;;;;;;;1.00;0.70;;;26.60;69.80;;;;;;5089309;23;20338;-53
2023/12/25 11:26:00;;;;;;;1.45;0.60;;;26.60;69.80;;;;;;5111392;23;20433;-49
2023/12/25 11:28:22;;;;;;;1.23;0.63;;;26.60;69.80;;;;;;5112307;23;20027;-49
2023/12/25 11:30:46;;;;;;;1.00;0.50;;;26.70;69.90;;;;;;5119635;23;20044;-49
2023/12/25 11:33:09;;;;;;;0.77;0.60;;;26.60;69.80;;;;;;5118752;23;20013;-51
2023/12/25 11:35:32;;;;;;;0.40;0.40;;;26.60;69.80;;;;;;5119441;23;20325;-49
2023/12/25 11:38:19;;;;;;;0.82;0.50;;;26.60;69.90;;;;;;5119777;23;20020;-50
2023/12/25 11:40:45;;;;;;;0.88;0.50;;;26.70;69.90;;;;;;5090129;23;20325;-46
2023/12/25 11:43:09;;;;;;;0.88;0.43;;;26.60;69.90;;;;;;5119758;23;20017;-50
2023/12/25 11:45:42;;;;;;;0.88;0.50;;;26.60;70.00;;;;;;5111612;23;20024;-52
2023/12/25 11:48:08;;;;;;;1.02;0.40;;;26.60;70.00;;;;;;5120244;23;20048;-53
2023/12/25 11:50:32;;;;;;;0.40;0.30;;;26.60;69.90;;;;;;5111350;23;20060;-51
2023/12/25 11:52:55;;;;;;;0.63;0.40;;;26.60;69.90;;;;;;5120801;23;20535;-53
2023/12/25 11:55:24;;;;;;;1.77;0.93;;;26.60;69.90;;;;;;5112038;23;20024;-50
2023/12/25 11:57:47;;;;;;;0.43;0.43;;;26.60;69.90;;;;;;5119753;23;20012;-52
2023/12/25 12:00:26;;;;;;;0.63;0.50;;;26.60;69.90;;;;;;5119492;23;20048;-47
2023/12/25 12:02:49;;;;;;;0.47;0.47;;;26.60;69.90;;;;;;5119527;23;20012;-48
2023/12/25 12:05:13;;;;;;;0.70;0.43;;;26.60;70.00;;;;;;5119149;23;20052;-52
2023/12/25 12:07:35;;;;;;;0.80;0.50;;;26.60;70.00;;;;;;5119118;23;20583;-51
2023/12/25 12:09:58;;;;;;;0.93;0.40;;;26.60;70.00;;;;;;5121606;23;20019;-48
2023/12/25 12:12:20;;;;;;;1.08;0.50;;;26.50;69.80;;;;;;5119791;23;20017;-49
2023/12/25 12:14:43;;;;;;;0.85;0.52;;;26.60;70.00;;;;;;5118914;23;20021;-51
2023/12/25 12:17:06;;;;;;;0.60;0.50;;;26.50;70.50;;;;;;5119246;23;20473;-50
2023/12/25 12:19:28;;;;;;;0.85;0.52;;;26.60;70.00;;;;;;5120028;23;20009;-46
2023/12/25 12:21:51;;;;;;;0.60;0.40;;;26.50;70.00;;;;;;5118057;23;20031;-50
2023/12/25 12:24:32;;;;;;;0.60;0.43;;;26.50;70.00;;;;;;5120859;23;20057;-49
2023/12/25 12:27:03;;;;;;;0.50;0.50;;;26.50;70.00;;;;;;5120529;23;20013;-45